This site, now in its 15th season, is a labour of love and fun from one of Ottawa's most avid time trialists and number crunchers. It adheres to and is permitted by the laws of Canada, promotes the objectives of every bicycle club whose results are shown, and is donated free of charge by myself for your enjoyment and usage. If you would like results from series you ride in to be shown here, give me (celia@drmath.ca) a shout!


Index Page
ATT OTT WTT AATT CFCTT VVVTT
Help resultformat:
Case-sensitive

OBC Open TT Series - 2008-May-01 - 15km (Rockliffe Pkwy) (EvtFactor = 0.8245)

Weather (18:00): Mostly Cloudy. Temp.: 11.7C, Humidity: 43%, DewPoint: -0.6C, Wind: SSE 13km/h, Pressure: 100.49kPa, Visibility: 24.1km.
Weather (19:00): Mainly Clear. Temp.: 10.9C, Humidity: 47%, DewPoint: 0.0C, Wind: E 11km/h, Pressure: 100.48kPa, Visibility: 24.1km.
Weather (20:00): Cloudy. Temp.: 8.6C, Humidity: 54%, DewPoint: -0.3C, Wind: E 13km/h, Pressure: 100.50kPa, Visibility: 24.1km.

Send photos with description (when/where/what) of yourself on or off of bike to celia@drmath.ca

These results were first posted on the OBC site circa 13:30 on 2008-May-04 and are available here for your added pleasure.
If you'd like to use the full functionality of this site and your name is followed by "Need YOB", please send me your year of birth.


Cooler than last week, 12 people improved upon or equalled their previous week's speed, while 21 people were slower. The remaining 31 were out for the first time this season. The most improved was Louis-Phillippe Leclair, now a senior rider, who set a new personal best. Mason Hanrahan and Allison Lampi were most improved relative to their previous database bests. Meanwhile, Hermann Kerckhoff made another improvement in the 70-79 year old category, after being egged on by now 80 year old Geoffrey Wright.

 
 

BESTS?
 
1 Amos, Ron  OBC/RWR 20:01 44.963 1/55 VBM 1/12 1.0176
2 MacDonald, Warren  OBC/EMD 20:05 44.813 2/55 VAM 1/5 0.9925
3 Riggs, Jamie OBC 20:57 42.959 3/55 SEM 1/6  
4 van den Ham, Douglas  OBC 21:02 42.789 4/55 SEM 2/6 1.0705
5 Cornel, Logan  EUR 21:06 42.654 5/55 JUM 1/5 0.9741
6 Desbiens, Martin OBC/RDO 21:20 42.188 6/55 VAM 2/5 1.0024
Devisscher, Thomas APK 21:20 42.188 6/55 SEM 3/6 0.9471
8 Munden, David EMD 21:39 41.570 8/55 VAM 3/5  
9 Zappe, Erich RWR 21:41 41.507 9/55 VBM 2/12  
10 Burge, Craig  WQW 21:53 41.127 10/55 VBM 3/12  
11 Damen, Trevor OBC/EUR 21:55 41.065 11/55 JUM 2/5  
12 Campbell, Colin  OBC 22:05 40.755 12/55 VBM 4/12 0.9798
13 Leclerc, Louis-Philippe IND 22:10 40.602 13/55 SEM 4/6 1.1026
Mullington, Chris OBC/WQW 22:10 40.602 13/55 VCM 1/5 0.9799
15 Tregunno, Peter  OBC 22:15 40.449 15/55 VAM 4/5 0.9470
16 Hanrahan, Mason EUR 22:16 40.419 16/55 JUM 3/5  
17 Dal-Cin, Matteo  EUR 22:26 40.119 17/55 JUM 4/5  
18 Cataford, Alex OBC 22:28 40.059 18/55 CAM 1/2 1.0044
19 Budgell, Glen  OBC 22:34 39.882 19/55 VCM 2/5 0.8831
20 Morvan, Jacques  OBC 22:36 39.823 20/55 VDM 1/4 1.0426
21 Gauthier, Antoine EUR 22:49 39.445 21/55 SEM 5/6 0.9294
22 Matte, Sophie  OBC/EMD 22:55 39.273 22/55 VAF 1/5 0.9443
23 Burdett, Avery  OBC 23:10 38.849 23/55 VDM 2/4 1.0729
24 Thomas, Trevor CYC 23:15 38.710 24/55 VAM 5/5  
25 DeVidi, Robert  OBC 23:22 38.516 25/55 VBM 5/12 1.0000
26 Gerrard, David  OBC 23:34 38.190 26/55 VBM 6/12  
27 Domina, Sara OBC 23:47 37.842 27/55 SEF 1/3 1.0042
28 Kerckhoff, Hermann  RWR 23:49 37.789 28/55 VEM 1/1 1.0404
29 Mellon, Alyssa  OBC 23:54 37.657 29/55 SEF 2/3  
30 MacKinnon, Anita  OBC 23:56 37.604 30/55 VAF 2/5  
31 Moerman, Bram  OBC 24:03 37.422 31/55 VDM 3/4 0.9530
32 Blagdon, Wendy  EMD 24:06 37.344 32/55 VBF 1/3 0.9430
33 Fortin, Yves OBC 24:09 37.267 33/55 VBM 7/12 0.9835
34 Burnet, Alex OBC 24:27 36.810 34/55 SEM 6/6  
35 Janusauskas, Vytas  OBC 24:28 36.785 35/55 VCM 3/5 0.9980
36 Lampi, Allison OBC/ULT 24:47 36.315 36/55 VAF 3/5  
37 Coney, Michael OBC 24:59 36.024 37/55 VDM 4/4 0.9259
38 Simard, Martin OBC 25:19 35.550 38/55 VBM 8/12 1.0605
39 Burge, Larry  OBC 25:30 35.294 39/55 VBM 9/12 0.9594
40 Hind, Terry OBC/EUR 25:39 35.088 40/55 VCM 4/5  
41 Handwork, Lonny OBC 25:58 34.660 41/55 VBM 10/12  
42 Marleau, Dianne  OBC/RWR 26:02 34.571 42/55 VBF 2/3  
43 Gagné, Marc  OBC 26:20 34.177 43/55 VBM 11/12 0.9459
44 Coney, Ingrid  OBC 26:47 33.603 44/55 VCF 1/3  
45 Imbrogno, Giorgio  OBC 27:02 33.292 45/55 VCM 5/5 0.9278
46 Laplante-Lamarche, Florence OBC 27:24 32.847 46/55 CAF 1/1 0.9236
47 Rees, Stephanie  OBC 27:35 32.628 47/55 VAF 4/5 1.0091
48 Evju, Are OBC 27:36 32.609 48/55 JUM 5/5  
49 Beraud, Sophie OBC 27:51 32.316 49/55 SEF 3/3  
50 Gauthier, Marie OBC 28:10 31.953 50/55 VCF 2/3 0.8956
51 Wright, Michael OBC 28:19 31.783 51/55 VBM 12/12  
52 McInnis, Celia 
(mechanical problem - had to stop and fix)
OBC/ABC 28:48 31.250 52/55 VCF 3/3 0.7938
53 Jay, Sheri OBC 30:40 29.348 53/55 VBF 3/3 0.8812
54 Byskov, Karen  OBC 33:18 27.027 54/55 VAF 5/5  
55 Morewood, Colin OBC DNF   55/55 CAM 2/2  
 
Average Speed of all of the above 54 finishes (810km in 21:47:47):37.162
>>>Average of the Average Speeds for these 54 finishes37.599<<<
 

The number of data records shown above is 55
The server processing of your query took: 1 wallclock secs ( 0.16 usr + 0.04 sys = 0.20 CPU)

Thanks to our Helpers: David Gerrard, Gunter Hauschildt, Bob Hicks, Alex McKnight

     


Mar 21 (Good Friday)
Apr 24
  May 1  
May 6 (10km) May 8 May 13 (10km) May 15 May 20 May 20 (10km) May 22 May 27 May 27 (10km) May 29
Jun 1 (40km) Jun 3 Jun 3 Jun 5 Jun 10 Jun 10 Jun 12 Jun 17 Jun 17 Jun 19 Jun 24 Jun 24 Jun 26
Jul 1 (cancelled - ) Jul 2 Jul 3 Jul 6 (40km) Jul 8 Jul 8 Jul 10 Jul 15 Jul 15 Jul 17 Jul 22 Jul 22 Jul 24 Jul 27 (40km) Jul 29 Jul 29 Jul 31
Aug 5 Aug 5 Aug 7 Aug 10 (40km) Aug 12 Aug 12 Aug 14 Aug 19 Aug 19 Aug 21 Aug 26 Aug 26 (Invitational) Aug 28
Sep 2 Sep 4 Sep 7 (40km) Sep 9 Sep 11 Sep 16 Sep 21 (40km) Sep 23 Sep 30

OTT Rankings
Best       Best by category
WTT Rankings for OBC Members
5 Best Speeds     5 Best Speeds by category
OBC Member Best Three 15km Rankings
Overall     by category     age-Hcap Female   age-Hcap Male
OBC BAR Ranking
Overall     by category     Rider "Consistency-Graph"
ABC BAR Ranking
Overall     by category     Rider "Consistency-Graph"
Other years
TT Calculator All TT People All TT events
ABC Home VVV Home
CKAP GOLD MEDAL
Other Links

Note: OTT data from 2003 through 2006-Apr-14 and 2007-Apr-06-? and WTT from 2008-? is taken from the official OBC site.

Please send your comments and suggestions to: Celia McInnis
Copyright © 1998-2011 Celia McInnis. All rights reserved. Links are welcomed.